Time;durP1;ratioP1;P1;durP2;ratioP2;P2;SDS_P1;SDS_P2;PMS_P1;PMS_P2;Temp;Humidity;BMP_temperature;BMP_pressure;BME280_temperature;BME280_humidity;BME280_pressure;Samples;Min_cycle;Max_cycle;Signal;HPM_P1;HPM_P2
2023/03/04 00:01:13;;;;;;;33.80;15.90;;;2.10;99.90;;;;;;5041522;28;20622;-65
2023/03/04 00:03:39;;;;;;;23.23;14.50;;;2.10;99.90;;;;;;5046442;28;20198;-66
2023/03/04 00:06:05;;;;;;;31.47;15.97;;;2.10;99.90;;;;;;5040154;28;20418;-66
2023/03/04 00:08:31;;;;;;;27.40;13.97;;;2.20;99.90;;;;;;5043384;28;20252;-65
2023/03/04 00:10:57;;;;;;;35.47;14.63;;;2.20;99.90;;;;;;5040779;28;20437;-64
2023/03/04 00:13:23;;;;;;;31.10;17.17;;;2.20;99.90;;;;;;5042568;28;20211;-66
2023/03/04 00:15:48;;;;;;;33.70;15.40;;;2.20;99.90;;;;;;5040838;28;20616;-64
2023/03/04 00:18:15;;;;;;;25.37;12.30;;;2.30;99.90;;;;;;5039538;28;20506;-65
2023/03/04 00:20:40;;;;;;;28.77;16.93;;;2.30;99.90;;;;;;5036991;28;20170;-65
2023/03/04 00:23:06;;;;;;;32.63;15.70;;;2.40;99.90;;;;;;5040381;28;20517;-66
2023/03/04 00:25:32;;;;;;;27.77;13.43;;;2.40;99.90;;;;;;5040000;28;20179;-66
2023/03/04 00:27:58;;;;;;;22.77;12.23;;;2.40;99.90;;;;;;5043294;28;20265;-66
2023/03/04 00:30:24;;;;;;;27.00;15.50;;;2.40;99.90;;;;;;5042724;28;20540;-67
2023/03/04 00:32:49;;;;;;;18.77;12.40;;;2.50;99.90;;;;;;5036501;28;20422;-65
2023/03/04 00:35:15;;;;;;;30.10;13.80;;;2.50;99.90;;;;;;5030500;28;20533;-64
2023/03/04 00:37:41;;;;;;;27.30;16.03;;;2.50;99.90;;;;;;5084174;22;20306;-68
2023/03/04 00:40:08;;;;;;;27.53;14.33;;;2.50;99.90;;;;;;5021153;28;20206;-68
2023/03/04 00:42:34;;;;;;;24.40;14.17;;;2.50;99.90;;;;;;5025433;28;20588;-68
2023/03/04 00:44:59;;;;;;;28.50;16.97;;;2.50;99.90;;;;;;5031556;28;20399;-68
2023/03/04 00:47:25;;;;;;;26.13;13.87;;;2.50;99.90;;;;;;5012661;28;20189;-70
2023/03/04 00:49:51;;;;;;;27.93;12.97;;;2.60;99.90;;;;;;5031004;28;20171;-68
2023/03/04 00:52:16;;;;;;;31.77;15.23;;;2.60;99.90;;;;;;5024547;28;20255;-68
2023/03/04 00:54:42;;;;;;;28.87;15.90;;;2.60;99.90;;;;;;5030717;28;20176;-69
2023/03/04 00:57:08;;;;;;;34.80;13.90;;;2.70;99.90;;;;;;5007090;28;20212;-70
2023/03/04 00:59:33;;;;;;;25.33;12.70;;;2.70;99.90;;;;;;5006940;28;20179;-67
2023/03/04 01:01:59;;;;;;;29.97;11.97;;;2.70;99.90;;;;;;5032276;28;20298;-67
2023/03/04 01:04:24;;;;;;;22.27;9.90;;;2.70;99.90;;;;;;5030302;28;20172;-69
2023/03/04 01:06:50;;;;;;;18.63;10.87;;;2.80;99.90;;;;;;5025190;28;20184;-67
2023/03/04 01:09:16;;;;;;;30.57;12.20;;;2.80;99.90;;;;;;5021564;28;20219;-70
2023/03/04 01:11:41;;;;;;;22.60;10.83;;;2.80;99.90;;;;;;5026409;28;20172;-67
2023/03/04 01:14:07;;;;;;;20.00;9.67;;;2.80;99.90;;;;;;5024079;28;20595;-67
2023/03/04 01:16:33;;;;;;;19.30;8.90;;;2.80;99.90;;;;;;5005003;28;20204;-71
2023/03/04 01:18:59;;;;;;;19.33;10.37;;;2.80;99.90;;;;;;5031131;28;20196;-69
2023/03/04 01:21:24;;;;;;;19.03;9.10;;;2.90;99.90;;;;;;5029849;28;20904;-69
2023/03/04 01:23:50;;;;;;;30.37;11.60;;;2.90;99.90;;;;;;5028284;28;20596;-69
2023/03/04 01:26:16;;;;;;;24.83;9.20;;;2.90;99.90;;;;;;5022688;28;20690;-69
2023/03/04 01:28:41;;;;;;;22.20;8.83;;;2.90;99.90;;;;;;5018140;28;20199;-69
2023/03/04 01:31:07;;;;;;;21.17;9.30;;;2.90;99.90;;;;;;5023956;28;20180;-68
2023/03/04 01:33:32;;;;;;;24.77;8.50;;;3.00;99.90;;;;;;5022872;28;20180;-69
2023/03/04 01:35:58;;;;;;;22.23;10.00;;;3.00;99.90;;;;;;5023146;28;20195;-68
2023/03/04 01:38:24;;;;;;;25.83;9.53;;;3.00;99.90;;;;;;5023556;28;20712;-68
2023/03/04 01:40:50;;;;;;;20.83;8.17;;;3.00;99.90;;;;;;5017577;28;20173;-69
2023/03/04 01:43:23;;;;;;;16.17;8.20;;;3.00;99.90;;;;;;5021469;28;20176;-69
2023/03/04 01:45:50;;;;;;;15.93;6.93;;;3.00;99.90;;;;;;5018885;28;20438;-69
2023/03/04 01:48:18;;;;;;;11.57;7.40;;;3.10;99.90;;;;;;5030652;28;20838;-68
2023/03/04 01:50:44;;;;;;;13.17;8.20;;;3.10;99.90;;;;;;5023589;28;20406;-68
2023/03/04 01:53:19;;;;;;;8.63;5.93;;;3.10;99.90;;;;;;5022119;28;20481;-69
2023/03/04 01:55:45;;;;;;;13.67;7.40;;;3.10;99.90;;;;;;5026471;28;20458;-70
2023/03/04 01:58:11;;;;;;;18.63;7.43;;;3.20;99.90;;;;;;5021844;28;20480;-68
2023/03/04 02:00:38;;;;;;;20.57;7.50;;;3.20;99.90;;;;;;5031314;28;20172;-69
2023/03/04 02:03:10;;;;;;;18.60;7.70;;;3.20;99.90;;;;;;5024113;28;20415;-69
2023/03/04 02:05:38;;;;;;;10.80;6.93;;;3.20;99.90;;;;;;5024912;28;20896;-69
2023/03/04 02:08:04;;;;;;;16.33;8.03;;;3.20;99.90;;;;;;5025660;28;20430;-69
2023/03/04 02:10:30;;;;;;;14.70;7.90;;;3.30;99.90;;;;;;5020236;28;20752;-67
2023/03/04 02:12:57;;;;;;;17.40;5.70;;;3.30;99.90;;;;;;5027882;28;20418;-68
2023/03/04 02:15:23;;;;;;;16.60;6.53;;;3.30;99.90;;;;;;5028395;28;20450;-68
2023/03/04 02:17:49;;;;;;;19.50;8.43;;;3.30;99.90;;;;;;5031563;28;20867;-68
2023/03/04 02:20:43;;;;;;;15.47;6.30;;;3.40;99.90;;;;;;5028143;28;20497;-69
2023/03/04 02:23:31;;;;;;;13.93;6.70;;;3.40;99.90;;;;;;5029443;28;20181;-69
2023/03/04 02:26:35;;;;;;;11.23;4.80;;;3.40;99.90;;;;;;5026755;28;20417;-68
2023/03/04 02:29:01;;;;;;;8.57;4.00;;;3.50;99.90;;;;;;5023188;28;20438;-69
2023/03/04 02:31:41;;;;;;;10.67;6.10;;;3.50;99.90;;;;;;5028415;28;20407;-68
2023/03/04 02:34:14;;;;;;;10.20;5.20;;;3.50;99.90;;;;;;5025207;28;20508;-69
2023/03/04 02:36:41;;;;;;;15.70;8.57;;;3.60;99.90;;;;;;5026186;28;20971;-69
2023/03/04 02:39:19;;;;;;;11.37;5.10;;;3.60;99.90;;;;;;5011940;28;20482;-69
2023/03/04 02:41:50;;;;;;;13.87;7.37;;;3.60;99.90;;;;;;5024006;28;20965;-69
2023/03/04 02:44:30;;;;;;;8.23;4.93;;;3.60;99.90;;;;;;5029817;28;20407;-70
2023/03/04 02:46:57;;;;;;;10.60;5.93;;;3.70;99.90;;;;;;5026530;28;20522;-69
2023/03/04 02:49:24;;;;;;;12.80;5.47;;;3.70;99.90;;;;;;5028715;28;20460;-70
2023/03/04 02:51:52;;;;;;;25.67;5.47;;;3.70;99.90;;;;;;5023850;28;20418;-70
2023/03/04 02:54:21;;;;;;;12.97;5.13;;;3.70;99.90;;;;;;5021716;28;20771;-68
2023/03/04 02:56:50;;;;;;;13.27;6.83;;;3.80;99.90;;;;;;5018783;28;20454;-69
2023/03/04 02:59:15;;;;;;;12.80;5.63;;;3.80;99.90;;;;;;5013208;28;20439;-69
2023/03/04 03:01:42;;;;;;;8.73;4.40;;;3.80;99.90;;;;;;5017403;28;20464;-70
2023/03/04 03:04:08;;;;;;;7.63;6.07;;;3.80;99.90;;;;;;5015201;28;20411;-69
2023/03/04 03:06:33;;;;;;;10.30;4.30;;;3.80;99.90;;;;;;5012969;28;20426;-70
2023/03/04 03:08:59;;;;;;;15.07;5.60;;;3.80;99.90;;;;;;5015501;28;20531;-70
2023/03/04 03:11:24;;;;;;;9.97;4.50;;;3.90;99.90;;;;;;5017417;28;20190;-68
2023/03/04 03:13:50;;;;;;;14.47;5.67;;;3.90;99.90;;;;;;5022599;28;20172;-69
2023/03/04 03:16:16;;;;;;;11.50;5.57;;;3.90;99.90;;;;;;4998460;28;20655;-69
2023/03/04 03:18:41;;;;;;;9.30;4.70;;;3.90;99.90;;;;;;5024847;28;20564;-71
2023/03/04 03:21:07;;;;;;;9.73;5.03;;;3.90;99.90;;;;;;5026667;28;20178;-67
2023/03/04 03:23:33;;;;;;;6.77;4.03;;;3.90;99.90;;;;;;5023912;28;20172;-69
2023/03/04 03:25:59;;;;;;;14.10;5.33;;;3.90;99.90;;;;;;5023987;28;20644;-70
2023/03/04 03:28:24;;;;;;;6.90;4.47;;;3.90;99.90;;;;;;5027848;28;20466;-69
2023/03/04 03:30:50;;;;;;;14.30;4.60;;;3.90;99.90;;;;;;5031976;28;20413;-71
2023/03/04 03:33:15;;;;;;;17.60;5.20;;;3.90;99.90;;;;;;5014558;28;20185;-68
2023/03/04 03:35:41;;;;;;;8.20;3.67;;;3.90;99.90;;;;;;5033041;28;20200;-68
2023/03/04 03:38:07;;;;;;;8.60;4.70;;;3.90;99.90;;;;;;5030014;28;20207;-68
2023/03/04 03:40:32;;;;;;;8.30;4.40;;;3.90;99.90;;;;;;5033797;28;20204;-69
2023/03/04 03:42:58;;;;;;;12.60;5.37;;;3.90;99.90;;;;;;5029510;28;20588;-69
2023/03/04 03:45:23;;;;;;;11.47;4.30;;;3.90;99.90;;;;;;5031667;28;20176;-68
2023/03/04 03:47:49;;;;;;;11.97;5.13;;;4.00;99.90;;;;;;5032571;28;20654;-68
2023/03/04 03:50:15;;;;;;;5.33;4.70;;;4.00;99.90;;;;;;5018821;28;20184;-70
2023/03/04 03:52:40;;;;;;;11.53;5.30;;;4.00;99.90;;;;;;5026574;28;20171;-69
2023/03/04 03:55:06;;;;;;;8.90;4.20;;;4.10;99.90;;;;;;5023294;28;20262;-68
2023/03/04 03:57:32;;;;;;;10.83;5.30;;;4.10;99.90;;;;;;5025509;28;20719;-68
2023/03/04 03:59:58;;;;;;;5.90;4.20;;;4.10;99.90;;;;;;5023002;28;20419;-69
2023/03/04 04:02:23;;;;;;;8.30;3.53;;;4.10;99.90;;;;;;5029651;28;20248;-68
2023/03/04 04:04:49;;;;;;;17.23;6.00;;;4.10;99.90;;;;;;5023296;28;20250;-70
2023/03/04 04:07:14;;;;;;;11.10;4.80;;;4.10;99.90;;;;;;5032052;28;20230;-67
2023/03/04 04:09:40;;;;;;;15.13;4.57;;;4.20;99.90;;;;;;5023672;28;20631;-68
2023/03/04 04:12:06;;;;;;;12.00;5.33;;;4.20;99.90;;;;;;5023098;28;20678;-67
2023/03/04 04:14:33;;;;;;;13.87;7.47;;;4.20;99.90;;;;;;5028297;28;20169;-71
2023/03/04 04:16:59;;;;;;;9.50;4.13;;;4.10;99.90;;;;;;5022634;28;20464;-68
2023/03/04 04:19:24;;;;;;;14.57;3.83;;;4.20;99.90;;;;;;5029796;28;20461;-68
2023/03/04 04:21:50;;;;;;;8.27;3.67;;;4.30;99.90;;;;;;5023019;28;20902;-68
2023/03/04 04:24:16;;;;;;;10.10;4.40;;;4.20;99.90;;;;;;5024145;28;20582;-69
2023/03/04 04:26:42;;;;;;;11.43;4.70;;;4.30;99.90;;;;;;5026581;28;20172;-69
2023/03/04 04:29:08;;;;;;;8.50;3.63;;;4.30;99.90;;;;;;5023452;28;20909;-68
2023/03/04 04:31:35;;;;;;;12.03;4.37;;;4.30;99.90;;;;;;5030895;28;20406;-69
2023/03/04 04:34:01;;;;;;;7.57;3.83;;;4.30;99.90;;;;;;5023050;28;20407;-68
2023/03/04 04:36:27;;;;;;;4.73;2.70;;;4.30;99.90;;;;;;5031330;28;20518;-68
2023/03/04 04:38:53;;;;;;;4.13;3.50;;;4.30;99.90;;;;;;5025235;28;20536;-69
2023/03/04 04:41:19;;;;;;;12.77;4.30;;;4.30;99.90;;;;;;5028396;28;20275;-69
2023/03/04 04:43:45;;;;;;;10.37;4.27;;;4.30;99.90;;;;;;5029713;28;20649;-68
2023/03/04 04:46:10;;;;;;;9.23;3.93;;;4.40;99.90;;;;;;5023225;28;20506;-68
2023/03/04 04:48:36;;;;;;;6.33;2.77;;;4.40;99.90;;;;;;5027979;28;20274;-69
2023/03/04 04:51:02;;;;;;;8.00;2.87;;;4.40;99.90;;;;;;5022590;28;20668;-68
2023/03/04 04:53:27;;;;;;;7.70;3.20;;;4.40;99.90;;;;;;5029685;28;20175;-71
2023/03/04 04:55:53;;;;;;;6.00;3.10;;;4.50;99.90;;;;;;5021876;28;20270;-69
2023/03/04 04:58:18;;;;;;;15.33;3.30;;;4.40;99.90;;;;;;5024193;28;20613;-69
2023/03/04 05:00:44;;;;;;;6.53;2.93;;;4.50;99.90;;;;;;5026664;28;20200;-68
2023/03/04 05:03:09;;;;;;;4.93;2.70;;;4.50;99.90;;;;;;5023224;28;20251;-69
2023/03/04 05:05:35;;;;;;;7.13;2.83;;;4.50;99.90;;;;;;5027474;28;20536;-69
2023/03/04 05:08:01;;;;;;;7.20;3.00;;;4.50;99.90;;;;;;5021545;28;20239;-70
2023/03/04 05:10:26;;;;;;;6.20;3.10;;;4.60;99.90;;;;;;5024811;28;20179;-69
2023/03/04 05:12:52;;;;;;;5.10;3.07;;;4.60;99.90;;;;;;5024449;28;20180;-69
2023/03/04 05:15:17;;;;;;;5.17;2.60;;;4.60;99.90;;;;;;5023464;28;20544;-68
2023/03/04 05:17:43;;;;;;;9.13;2.30;;;4.60;99.90;;;;;;5026128;28;20181;-68
2023/03/04 05:20:09;;;;;;;2.33;2.13;;;4.60;99.90;;;;;;5022212;28;20318;-67
2023/03/04 05:22:35;;;;;;;6.57;2.90;;;4.70;99.90;;;;;;5028403;28;20593;-70
2023/03/04 05:25:00;;;;;;;2.47;1.93;;;4.70;99.90;;;;;;5021010;28;20453;-68
2023/03/04 05:27:26;;;;;;;6.60;3.47;;;4.70;99.90;;;;;;5024448;28;20227;-69
2023/03/04 05:29:54;;;;;;;4.00;2.70;;;4.70;99.90;;;;;;5024192;28;20172;-68
2023/03/04 05:32:20;;;;;;;3.83;2.47;;;4.70;99.90;;;;;;5024407;28;20199;-69
2023/03/04 05:34:45;;;;;;;8.33;3.60;;;4.70;99.90;;;;;;5027535;28;20419;-70
2023/03/04 05:37:11;;;;;;;6.23;2.40;;;4.70;99.90;;;;;;5024439;28;20196;-68
2023/03/04 05:39:37;;;;;;;3.40;2.20;;;4.70;99.90;;;;;;5030160;28;20206;-68
2023/03/04 05:42:02;;;;;;;6.90;2.07;;;4.70;99.90;;;;;;5021251;28;20176;-69
2023/03/04 05:44:28;;;;;;;7.70;2.50;;;4.70;99.90;;;;;;5008828;28;20182;-69
2023/03/04 05:46:53;;;;;;;4.50;2.83;;;4.70;99.90;;;;;;5019174;28;20168;-71
2023/03/04 05:49:19;;;;;;;9.10;2.40;;;4.70;99.90;;;;;;5023187;28;20200;-69
2023/03/04 05:51:45;;;;;;;9.40;2.80;;;4.70;99.90;;;;;;5012808;28;20175;-68
2023/03/04 05:54:10;;;;;;;11.90;3.10;;;4.70;99.90;;;;;;5022218;28;20183;-68
2023/03/04 05:56:36;;;;;;;7.10;3.20;;;4.70;99.90;;;;;;5029101;28;20203;-69
2023/03/04 05:59:01;;;;;;;5.40;2.90;;;4.70;99.90;;;;;;5020748;28;20200;-69
2023/03/04 06:01:27;;;;;;;4.63;2.17;;;4.70;99.90;;;;;;5024104;28;20583;-69
2023/03/04 06:03:53;;;;;;;4.00;2.63;;;4.70;99.90;;;;;;5024121;28;20176;-69
2023/03/04 06:06:18;;;;;;;7.50;2.70;;;4.70;99.90;;;;;;5023735;28;20219;-70
2023/03/04 06:08:44;;;;;;;4.33;2.50;;;4.70;99.90;;;;;;5006123;28;20198;-68
2023/03/04 06:11:09;;;;;;;7.70;3.00;;;4.70;99.90;;;;;;5021923;28;20176;-69
2023/03/04 06:13:35;;;;;;;5.23;2.60;;;4.70;99.90;;;;;;5023998;28;20208;-69
2023/03/04 06:16:01;;;;;;;5.87;3.67;;;4.70;99.90;;;;;;5022909;28;20305;-69
2023/03/04 06:18:28;;;;;;;6.20;2.50;;;4.70;99.90;;;;;;5023623;28;20237;-71
2023/03/04 06:20:58;;;;;;;8.60;2.77;;;4.70;99.90;;;;;;5023894;28;20168;-69
2023/03/04 06:23:25;;;;;;;7.50;1.97;;;4.70;99.90;;;;;;5023307;28;20412;-69
2023/03/04 06:25:55;;;;;;;5.57;2.97;;;4.70;99.90;;;;;;5023703;28;20464;-69
2023/03/04 06:28:21;;;;;;;2.73;2.30;;;4.70;99.90;;;;;;5021643;28;20426;-71
2023/03/04 06:30:47;;;;;;;3.87;2.80;;;4.70;99.90;;;;;;5023969;28;20450;-69
2023/03/04 06:33:12;;;;;;;11.40;3.00;;;4.70;99.90;;;;;;5022629;28;20658;-69
2023/03/04 06:35:38;;;;;;;3.97;2.70;;;4.80;99.90;;;;;;5024089;28;20277;-68
2023/03/04 06:38:03;;;;;;;9.17;2.83;;;4.70;99.90;;;;;;5022842;28;20239;-68
2023/03/04 06:40:29;;;;;;;6.10;2.33;;;4.70;99.90;;;;;;5024019;28;20672;-68
2023/03/04 06:42:54;;;;;;;5.00;2.40;;;4.70;99.90;;;;;;5030934;22;20616;-65
2023/03/04 06:45:20;;;;;;;12.33;2.50;;;4.70;99.90;;;;;;5020489;28;20218;-65
2023/03/04 06:47:46;;;;;;;5.07;2.43;;;4.70;99.90;;;;;;5021511;28;20286;-62
2023/03/04 06:50:12;;;;;;;8.40;3.30;;;4.70;99.90;;;;;;5018615;28;20175;-65
2023/03/04 06:52:39;;;;;;;10.00;3.20;;;4.80;99.90;;;;;;5016175;28;20214;-63
2023/03/04 06:55:05;;;;;;;9.40;2.73;;;4.90;99.90;;;;;;5019003;28;20489;-63
2023/03/04 06:57:31;;;;;;;12.80;2.53;;;5.00;99.90;;;;;;5014724;28;20471;-63
2023/03/04 06:59:57;;;;;;;11.17;2.70;;;5.00;99.90;;;;;;5024158;28;20410;-63
2023/03/04 07:02:22;;;;;;;3.90;2.93;;;4.90;99.90;;;;;;5018539;28;20569;-63
2023/03/04 07:04:48;;;;;;;8.27;2.33;;;5.00;99.90;;;;;;5023155;28;20179;-64
2023/03/04 07:07:14;;;;;;;7.63;2.60;;;4.90;99.90;;;;;;5019665;28;20175;-63
2023/03/04 07:09:40;;;;;;;5.70;2.93;;;4.90;99.90;;;;;;5016728;28;20905;-62
2023/03/04 07:12:05;;;;;;;6.43;3.40;;;4.90;99.90;;;;;;5025009;28;20580;-63
2023/03/04 07:14:31;;;;;;;5.73;2.43;;;4.90;99.90;;;;;;5012632;28;20574;-64
2023/03/04 07:16:57;;;;;;;6.90;2.80;;;4.90;99.90;;;;;;5023885;28;20454;-64
2023/03/04 07:19:22;;;;;;;11.20;2.40;;;4.90;99.90;;;;;;5021837;28;20270;-63
2023/03/04 07:21:48;;;;;;;3.90;2.77;;;4.90;99.90;;;;;;5014626;28;20192;-65
2023/03/04 07:24:14;;;;;;;4.30;2.20;;;4.90;99.90;;;;;;5021762;28;20179;-63
2023/03/04 07:26:40;;;;;;;4.77;2.50;;;4.80;99.90;;;;;;5013908;28;20263;-65
2023/03/04 07:29:05;;;;;;;3.00;2.20;;;4.80;99.90;;;;;;5028149;28;20429;-64
2023/03/04 07:31:33;;;;;;;4.80;2.40;;;4.80;99.90;;;;;;5021730;28;20223;-64
2023/03/04 07:34:05;;;;;;;4.63;2.07;;;4.80;99.90;;;;;;5028656;28;20548;-69
2023/03/04 07:36:32;;;;;;;3.70;2.23;;;4.90;99.90;;;;;;5015875;28;20465;-64
2023/03/04 07:38:58;;;;;;;4.03;1.90;;;5.00;99.90;;;;;;5024549;28;20872;-64
2023/03/04 07:41:26;;;;;;;3.60;2.27;;;5.00;99.90;;;;;;5027785;28;20441;-64
2023/03/04 07:43:51;;;;;;;6.30;2.00;;;5.00;99.90;;;;;;5021838;28;20647;-64
2023/03/04 07:46:18;;;;;;;1.47;1.37;;;5.00;99.90;;;;;;5028186;28;20416;-65
2023/03/04 07:48:44;;;;;;;3.20;2.00;;;5.00;99.90;;;;;;5013984;28;20176;-65
2023/03/04 07:51:13;;;;;;;2.70;1.90;;;5.00;99.90;;;;;;5010795;28;20416;-64
2023/03/04 07:53:41;;;;;;;6.03;2.40;;;5.10;99.90;;;;;;5012956;28;20408;-66
2023/03/04 07:56:10;;;;;;;6.77;2.73;;;5.20;99.90;;;;;;5027413;28;20450;-64
2023/03/04 07:58:36;;;;;;;5.47;2.97;;;5.30;99.90;;;;;;5002245;28;20906;-63
2023/03/04 08:01:08;;;;;;;4.57;2.70;;;5.30;99.90;;;;;;5020160;28;20408;-67
2023/03/04 08:03:34;;;;;;;1.77;1.50;;;5.20;99.90;;;;;;5002046;28;20164;-64
2023/03/04 08:05:59;;;;;;;4.03;1.87;;;5.20;99.90;;;;;;5024686;28;20418;-63
2023/03/04 08:08:25;;;;;;;2.27;2.07;;;5.20;99.90;;;;;;5018915;28;20501;-63
2023/03/04 08:10:50;;;;;;;6.03;1.80;;;5.20;99.90;;;;;;5017813;28;20669;-64
2023/03/04 08:13:16;;;;;;;3.27;2.10;;;5.10;99.90;;;;;;5018193;28;20192;-64
2023/03/04 08:15:42;;;;;;;3.27;1.90;;;5.20;99.90;;;;;;5024488;28;20192;-64
2023/03/04 08:18:07;;;;;;;2.77;2.30;;;5.20;99.90;;;;;;5022612;28;20544;-63
2023/03/04 08:20:33;;;;;;;4.77;2.03;;;5.30;99.90;;;;;;5022955;28;20195;-63
2023/03/04 08:22:59;;;;;;;3.13;2.00;;;5.20;99.90;;;;;;5024056;28;20203;-63
2023/03/04 08:25:24;;;;;;;3.97;2.40;;;5.30;99.90;;;;;;5018293;28;20194;-63
2023/03/04 08:27:50;;;;;;;2.67;2.47;;;5.30;99.90;;;;;;5023175;28;20171;-64
2023/03/04 08:30:16;;;;;;;6.80;1.80;;;5.30;99.90;;;;;;5021378;28;20177;-65
2023/03/04 08:32:41;;;;;;;2.73;1.67;;;5.30;99.90;;;;;;5024211;28;20184;-63
2023/03/04 08:35:07;;;;;;;3.90;2.73;;;5.30;99.90;;;;;;5018826;28;20263;-64
2023/03/04 08:37:32;;;;;;;2.87;2.03;;;5.40;99.90;;;;;;5012809;28;20214;-64
2023/03/04 08:39:58;;;;;;;3.13;2.03;;;5.50;99.90;;;;;;5024442;28;20177;-64
2023/03/04 08:42:24;;;;;;;2.10;1.60;;;5.40;99.90;;;;;;5024006;28;20881;-63
2023/03/04 08:44:50;;;;;;;3.33;1.50;;;5.40;99.90;;;;;;5017938;28;20272;-63
2023/03/04 08:47:15;;;;;;;3.23;1.73;;;5.40;99.90;;;;;;5022944;28;20176;-63
2023/03/04 08:49:41;;;;;;;6.27;2.10;;;5.50;99.90;;;;;;5019293;28;20181;-64
2023/03/04 08:52:07;;;;;;;3.97;1.60;;;5.70;99.90;;;;;;5020898;28;20196;-64
2023/03/04 08:54:32;;;;;;;4.87;2.47;;;5.70;99.90;;;;;;5018473;28;20175;-63
2023/03/04 08:56:58;;;;;;;8.27;3.13;;;5.70;99.90;;;;;;5024410;28;20299;-64
2023/03/04 08:59:23;;;;;;;2.57;1.90;;;5.80;99.90;;;;;;5020630;28;20512;-62
2023/03/04 09:01:49;;;;;;;5.37;1.50;;;6.00;99.90;;;;;;5023309;28;20301;-64
2023/03/04 09:04:15;;;;;;;2.10;1.60;;;6.00;99.90;;;;;;5017217;28;20184;-62
2023/03/04 09:06:40;;;;;;;6.43;2.07;;;6.10;99.90;;;;;;5018658;28;20196;-63
2023/03/04 09:09:06;;;;;;;5.33;2.00;;;6.20;99.90;;;;;;5022543;28;20172;-66
2023/03/04 09:11:32;;;;;;;3.63;1.77;;;6.20;99.90;;;;;;5022248;28;20591;-71
2023/03/04 09:13:57;;;;;;;2.80;1.60;;;6.10;99.90;;;;;;5025705;28;20231;-67
2023/03/04 09:16:23;;;;;;;3.60;1.57;;;6.20;99.90;;;;;;5023168;28;20756;-70
2023/03/04 09:18:49;;;;;;;4.40;1.30;;;6.20;99.90;;;;;;5020040;28;20168;-63
2023/03/04 09:21:14;;;;;;;12.47;1.90;;;6.20;99.90;;;;;;5022539;28;20187;-65
2023/03/04 09:23:40;;;;;;;3.53;1.70;;;6.20;99.90;;;;;;5028529;28;20173;-63
2023/03/04 09:26:14;;;;;;;3.23;1.60;;;6.40;99.90;;;;;;5014880;28;20188;-68
2023/03/04 09:28:40;;;;;;;3.07;1.67;;;6.50;99.90;;;;;;5016916;28;20174;-64
2023/03/04 09:31:13;;;;;;;3.67;1.47;;;6.40;99.90;;;;;;5000233;28;20606;-63
2023/03/04 09:33:41;;;;;;;2.93;1.20;;;6.40;99.90;;;;;;4999547;28;20175;-62
2023/03/04 09:36:12;;;;;;;2.67;1.47;;;6.50;99.90;;;;;;5018759;28;20762;-64
2023/03/04 09:38:38;;;;;;;3.23;1.33;;;6.60;99.90;;;;;;5024673;28;20411;-64
2023/03/04 09:41:13;;;;;;;7.40;1.80;;;6.60;99.90;;;;;;5027868;28;20416;-65
2023/03/04 09:43:39;;;;;;;4.80;1.87;;;6.70;99.90;;;;;;5019321;28;20410;-65
2023/03/04 09:46:13;;;;;;;2.70;1.30;;;6.80;99.90;;;;;;5025427;28;20433;-64
2023/03/04 09:48:46;;;;;;;9.23;1.87;;;6.80;99.90;;;;;;5019449;28;20405;-66
2023/03/04 09:51:20;;;;;;;4.90;1.73;;;6.60;99.90;;;;;;5026383;28;20402;-64
2023/03/04 09:54:04;;;;;;;4.03;1.70;;;6.70;99.90;;;;;;5018993;28;20921;-64
2023/03/04 09:56:32;;;;;;;3.17;1.57;;;6.80;99.90;;;;;;5019165;28;20541;-62
2023/03/04 09:59:16;;;;;;;7.03;1.67;;;6.70;99.90;;;;;;5018683;28;20497;-64
2023/03/04 10:01:48;;;;;;;2.10;1.83;;;6.80;99.90;;;;;;5014514;28;20425;-64
2023/03/04 10:04:23;;;;;;;5.53;1.67;;;6.90;99.90;;;;;;5021889;28;20414;-64
2023/03/04 10:06:53;;;;;;;1.40;1.10;;;6.80;99.90;;;;;;5022505;28;20406;-64
2023/03/04 10:09:26;;;;;;;5.33;1.97;;;6.80;99.90;;;;;;5020203;28;20421;-63
2023/03/04 10:12:04;;;;;;;3.87;2.07;;;6.90;99.90;;;;;;5023589;28;20431;-64
2023/03/04 10:14:42;;;;;;;8.77;1.73;;;7.00;99.90;;;;;;5009161;28;20421;-62
2023/03/04 10:17:13;;;;;;;5.00;2.47;;;7.00;99.90;;;;;;5020423;28;20453;-63
2023/03/04 10:19:44;;;;;;;3.93;1.40;;;7.00;99.90;;;;;;5018612;28;20478;-62
2023/03/04 10:22:25;;;;;;;5.33;1.53;;;6.90;99.90;;;;;;5027747;28;20422;-63
2023/03/04 10:24:54;;;;;;;4.07;1.47;;;6.80;99.90;;;;;;5013565;28;20411;-63
2023/03/04 10:27:22;;;;;;;4.33;1.50;;;6.80;99.90;;;;;;5021252;28;20424;-62
2023/03/04 10:29:48;;;;;;;8.90;1.67;;;6.90;99.90;;;;;;5004356;28;20918;-63
2023/03/04 10:32:17;;;;;;;3.53;2.10;;;6.80;99.90;;;;;;5020351;28;20613;-62
2023/03/04 10:34:43;;;;;;;9.27;2.90;;;6.70;99.90;;;;;;5023538;28;20243;-63
2023/03/04 10:37:10;;;;;;;7.67;1.53;;;6.90;99.90;;;;;;5017212;28;20820;-62
2023/03/04 10:39:45;;;;;;;4.40;1.57;;;6.80;99.90;;;;;;5014886;28;20475;-64
2023/03/04 10:42:13;;;;;;;8.00;1.67;;;6.90;99.90;;;;;;5015637;28;20451;-62
2023/03/04 10:44:59;;;;;;;4.80;2.00;;;6.90;99.90;;;;;;5021809;28;20755;-62
2023/03/04 10:47:28;;;;;;;3.43;1.43;;;6.90;99.90;;;;;;5020929;28;20459;-64
2023/03/04 10:49:59;;;;;;;4.50;2.03;;;6.90;99.90;;;;;;5021866;28;20414;-62
2023/03/04 10:52:30;;;;;;;5.17;2.00;;;6.80;99.90;;;;;;5017909;28;20923;-62
2023/03/04 10:54:59;;;;;;;9.03;2.50;;;6.80;99.90;;;;;;5021989;28;20402;-63
2023/03/04 10:57:43;;;;;;;2.97;2.43;;;6.80;99.90;;;;;;5019496;28;20504;-64
2023/03/04 11:00:35;;;;;;;3.40;3.10;;;6.70;99.90;;;;;;5025133;28;20821;-63
2023/03/04 11:03:25;;;;;;;3.90;1.43;;;6.70;99.90;;;;;;5015364;28;20425;-63
2023/03/04 11:06:03;;;;;;;6.43;2.57;;;6.80;99.90;;;;;;5013703;28;20412;-62
2023/03/04 11:08:28;;;;;;;10.10;2.00;;;6.90;99.90;;;;;;5017177;28;20555;-62
2023/03/04 11:10:54;;;;;;;8.10;2.50;;;7.20;99.90;;;;;;5015293;28;20419;-62
2023/03/04 11:13:20;;;;;;;7.80;2.40;;;7.10;99.90;;;;;;5020322;28;20195;-62
2023/03/04 11:16:18;;;;;;;8.20;2.10;;;7.10;99.90;;;;;;5022061;28;20191;-63
2023/03/04 11:18:51;;;;;;;6.43;2.10;;;7.20;99.90;;;;;;5014364;28;20403;-62
2023/03/04 11:21:27;;;;;;;2.03;1.43;;;7.10;99.90;;;;;;5014921;28;20518;-64
2023/03/04 11:23:56;;;;;;;10.43;2.93;;;7.40;99.90;;;;;;5021633;28;20410;-62
2023/03/04 11:26:50;;;;;;;14.63;2.60;;;7.30;99.90;;;;;;5018901;28;20410;-63
2023/03/04 11:29:40;;;;;;;7.43;1.87;;;7.50;99.90;;;;;;5017972;28;20412;-63
2023/03/04 11:32:30;;;;;;;5.80;2.07;;;7.40;99.90;;;;;;5015419;28;20440;-63
2023/03/04 11:35:19;;;;;;;5.47;3.17;;;7.60;99.90;;;;;;5021232;28;20424;-63
2023/03/04 11:38:20;;;;;;;10.60;2.60;;;7.80;99.90;;;;;;5013063;28;20422;-63
2023/03/04 11:40:52;;;;;;;7.50;2.10;;;7.90;99.90;;;;;;5021359;28;20401;-63
2023/03/04 11:43:45;;;;;;;7.30;4.83;;;7.90;99.90;;;;;;5019019;28;20987;-63
2023/03/04 11:46:24;;;;;;;10.37;2.40;;;7.70;99.90;;;;;;5021115;28;20411;-63
2023/03/04 11:48:50;;;;;;;10.10;2.50;;;7.70;99.90;;;;;;5017851;28;20495;-63
2023/03/04 11:51:34;;;;;;;9.70;2.40;;;7.50;99.90;;;;;;5011675;28;20518;-61
2023/03/04 11:54:14;;;;;;;8.17;2.80;;;7.40;99.90;;;;;;5008799;28;20180;-63
2023/03/04 11:56:53;;;;;;;8.70;2.50;;;7.40;99.90;;;;;;5015006;28;21097;-63
2023/03/04 11:59:19;;;;;;;7.90;2.20;;;7.50;99.90;;;;;;5023647;28;20415;-62
2023/03/04 12:02:03;;;;;;;10.80;2.60;;;7.40;99.90;;;;;;5019123;28;20782;-64
2023/03/04 12:04:40;;;;;;;6.83;2.33;;;7.30;99.90;;;;;;5015069;28;20168;-63
2023/03/04 12:07:15;;;;;;;6.43;2.30;;;7.30;99.90;;;;;;5024462;28;20417;-61
2023/03/04 12:09:52;;;;;;;9.00;2.60;;;7.30;99.90;;;;;;5021254;28;20473;-63
2023/03/04 12:12:30;;;;;;;15.87;3.93;;;7.30;99.90;;;;;;5026191;28;20547;-63
2023/03/04 12:15:08;;;;;;;4.40;2.10;;;7.40;99.90;;;;;;5013658;28;20419;-63
2023/03/04 12:18:01;;;;;;;11.53;2.87;;;7.40;99.90;;;;;;5020836;28;20457;-63
2023/03/04 12:20:41;;;;;;;5.50;2.70;;;7.30;99.90;;;;;;5024175;28;20398;-64
2023/03/04 12:23:15;;;;;;;12.87;3.23;;;7.00;99.90;;;;;;5020884;28;20870;-63
2023/03/04 12:25:44;;;;;;;11.70;2.80;;;7.10;99.90;;;;;;5018971;28;20444;-65
2023/03/04 12:28:18;;;;;;;3.73;1.77;;;7.10;99.90;;;;;;5021898;28;20412;-64
2023/03/04 12:30:53;;;;;;;6.73;1.87;;;7.40;99.90;;;;;;5024635;28;20411;-63
2023/03/04 12:33:34;;;;;;;10.53;2.63;;;7.20;99.90;;;;;;5014744;28;20931;-63
2023/03/04 12:36:09;;;;;;;8.57;2.23;;;7.30;99.90;;;;;;5024537;28;20477;-64
2023/03/04 12:38:43;;;;;;;9.93;2.20;;;7.10;99.90;;;;;;5018709;28;20438;-63
2023/03/04 12:41:37;;;;;;;4.60;2.33;;;7.10;99.90;;;;;;5025776;28;20501;-63
2023/03/04 12:44:17;;;;;;;9.40;3.93;;;7.10;99.90;;;;;;5009488;28;20412;-65
2023/03/04 12:47:07;;;;;;;10.50;2.20;;;7.10;99.90;;;;;;5024257;28;20937;-63
2023/03/04 12:49:36;;;;;;;5.80;1.90;;;7.00;99.90;;;;;;5001669;28;20767;-62
2023/03/04 12:52:09;;;;;;;7.20;2.80;;;7.20;99.90;;;;;;5016941;28;20435;-64
2023/03/04 12:54:49;;;;;;;3.93;2.80;;;7.10;99.90;;;;;;5007211;28;20415;-63
2023/03/04 12:57:20;;;;;;;6.33;1.80;;;7.00;99.90;;;;;;5018746;28;20833;-63
2023/03/04 12:59:53;;;;;;;4.67;1.87;;;7.20;99.90;;;;;;5024667;28;20492;-63
2023/03/04 13:02:34;;;;;;;8.57;2.73;;;7.50;99.90;;;;;;5017681;28;20805;-63